createdAt,value
2022-07-25T00:01:04.217Z,22.40
2022-07-25T00:03:39.127Z,22.40
2022-07-25T00:06:13.565Z,22.40
2022-07-25T00:08:49.862Z,22.30
2022-07-25T00:11:22.145Z,22.30
2022-07-25T00:13:54.923Z,22.30
2022-07-25T00:16:26.902Z,22.30
2022-07-25T00:18:59.119Z,22.30
2022-07-25T00:21:31.293Z,22.30
2022-07-25T00:24:04.086Z,22.30
2022-07-25T00:26:40.247Z,22.30
2022-07-25T00:29:13.726Z,22.20
2022-07-25T00:31:45.730Z,22.20
2022-07-25T00:34:17.878Z,22.20
2022-07-25T00:36:49.962Z,22.20
2022-07-25T00:39:21.939Z,22.20
2022-07-25T00:41:53.946Z,22.10
2022-07-25T00:44:29.143Z,22.20
2022-07-25T00:47:02.785Z,22.20
2022-07-25T00:49:34.925Z,22.20
2022-07-25T00:52:07.158Z,22.20
2022-07-25T00:54:39.422Z,22.20
2022-07-25T00:57:11.789Z,22.20
2022-07-25T00:59:43.956Z,22.20
2022-07-25T01:02:16.197Z,22.20
2022-07-25T01:04:48.625Z,22.20
2022-07-25T01:07:21.449Z,22.20
2022-07-25T01:09:54.368Z,22.20
2022-07-25T01:12:26.565Z,22.10
2022-07-25T01:14:58.699Z,22.10
2022-07-25T01:17:30.703Z,22.10
2022-07-25T01:20:02.789Z,22.10
2022-07-25T01:22:35.337Z,22.10
2022-07-25T01:25:07.610Z,22.10
2022-07-25T01:27:41.500Z,22.10
2022-07-25T01:30:16.048Z,22.00
2022-07-25T01:32:48.605Z,22.00
2022-07-25T01:35:20.998Z,21.90
2022-07-25T01:37:53.224Z,22.00
2022-07-25T01:40:25.471Z,21.90
2022-07-25T01:42:57.813Z,21.90
2022-07-25T01:45:29.853Z,21.90
2022-07-25T01:48:01.918Z,21.80
2022-07-25T01:50:34.221Z,21.80
2022-07-25T01:53:06.794Z,21.70
2022-07-25T01:55:39.034Z,21.70
2022-07-25T01:58:12.065Z,21.60
2022-07-25T02:00:44.381Z,21.60
2022-07-25T02:03:31.578Z,21.50
2022-07-25T02:06:07.051Z,21.50
2022-07-25T02:08:39.213Z,21.50
2022-07-25T02:11:11.506Z,21.50
2022-07-25T02:13:43.551Z,21.50
2022-07-25T02:16:15.542Z,21.50
2022-07-25T02:18:47.635Z,21.50
2022-07-25T02:21:20.029Z,21.50
2022-07-25T02:23:52.226Z,21.40
2022-07-25T02:26:24.239Z,21.40
2022-07-25T02:28:56.170Z,21.40
2022-07-25T02:31:28.267Z,21.40
2022-07-25T02:34:00.422Z,21.40
2022-07-25T02:36:32.540Z,21.30
2022-07-25T02:39:04.680Z,21.40
2022-07-25T02:41:36.803Z,21.30
2022-07-25T02:44:12.398Z,21.30
2022-07-25T02:46:44.368Z,21.20
2022-07-25T02:49:17.322Z,21.20
2022-07-25T02:51:49.286Z,21.10
2022-07-25T02:54:21.469Z,21.10
2022-07-25T02:56:53.746Z,21.00
2022-07-25T02:59:25.701Z,21.00
2022-07-25T03:02:04.362Z,20.90
2022-07-25T03:04:36.360Z,20.90
2022-07-25T03:07:08.580Z,20.90
2022-07-25T03:09:40.700Z,20.80
2022-07-25T03:12:12.711Z,20.80
2022-07-25T03:14:44.688Z,20.80
2022-07-25T03:17:16.814Z,20.80
2022-07-25T03:19:48.938Z,20.80
2022-07-25T03:22:21.414Z,20.80
2022-07-25T03:24:54.071Z,20.80
2022-07-25T03:27:26.135Z,20.70
2022-07-25T03:29:58.408Z,20.70
2022-07-25T03:32:30.547Z,20.70
2022-07-25T03:35:02.705Z,20.60
2022-07-25T03:37:36.205Z,20.60
2022-07-25T03:40:09.186Z,20.50
2022-07-25T03:42:41.817Z,20.50
2022-07-25T03:45:14.076Z,20.50
2022-07-25T03:47:46.222Z,20.50
2022-07-25T03:50:18.336Z,20.40
2022-07-25T03:52:50.514Z,20.40
2022-07-25T03:55:22.508Z,20.40
2022-07-25T03:57:54.488Z,20.40
2022-07-25T04:00:26.487Z,20.40
2022-07-25T04:02:59.371Z,20.40
2022-07-25T04:05:31.305Z,20.40
2022-07-25T04:08:03.480Z,20.40
2022-07-25T04:10:37.618Z,20.40
2022-07-25T04:13:09.618Z,20.40
2022-07-25T04:15:41.673Z,20.40
2022-07-25T04:18:14.732Z,20.40
2022-07-25T04:20:50.529Z,20.50
2022-07-25T04:23:22.535Z,20.50
2022-07-25T04:25:55.727Z,20.60
2022-07-25T04:28:28.590Z,20.60
2022-07-25T04:31:01.098Z,20.60
2022-07-25T04:33:33.129Z,20.60
2022-07-25T04:36:09.953Z,20.70
2022-07-25T04:38:41.994Z,20.70
2022-07-25T04:41:14.042Z,20.70
2022-07-25T04:43:48.739Z,20.80
2022-07-25T04:46:22.254Z,20.80
2022-07-25T04:49:00.324Z,20.90
2022-07-25T04:51:32.476Z,20.90
2022-07-25T04:54:05.165Z,20.90
2022-07-25T04:56:37.512Z,20.90
2022-07-25T04:59:09.573Z,21.00
2022-07-25T05:01:41.535Z,21.00
2022-07-25T05:04:13.457Z,21.10
2022-07-25T05:06:45.391Z,21.10
2022-07-25T05:09:17.338Z,21.20
2022-07-25T05:11:54.163Z,21.30
2022-07-25T05:14:30.864Z,21.30
2022-07-25T05:17:05.644Z,21.30
2022-07-25T05:19:39.269Z,21.40
2022-07-25T05:22:14.719Z,21.50
2022-07-25T05:24:47.667Z,21.60
2022-07-25T05:27:29.919Z,21.70
2022-07-25T05:30:08.679Z,21.80
2022-07-25T05:32:45.065Z,21.80
2022-07-25T05:35:17.480Z,22.00
2022-07-25T05:37:49.536Z,22.00
2022-07-25T05:40:21.781Z,22.20
2022-07-25T05:42:55.445Z,22.30
2022-07-25T05:45:29.574Z,22.50
2022-07-25T05:48:02.006Z,22.60
2022-07-25T05:50:36.335Z,22.70
2022-07-25T05:53:08.484Z,22.90
2022-07-25T05:55:41.019Z,23.00
2022-07-25T05:58:13.489Z,23.20
2022-07-25T06:00:45.483Z,23.40
2022-07-25T06:03:18.846Z,23.60
2022-07-25T06:05:50.952Z,23.90
2022-07-25T06:08:23.046Z,24.10
2022-07-25T06:10:55.351Z,24.40
2022-07-25T06:13:29.038Z,24.60
2022-07-25T06:16:01.666Z,25.00
2022-07-25T06:18:34.419Z,25.40
2022-07-25T06:21:06.633Z,25.90
2022-07-25T06:23:38.691Z,26.30
2022-07-25T06:26:11.020Z,27.00
2022-07-25T06:28:43.099Z,27.70
2022-07-25T06:31:15.249Z,28.30
2022-07-25T06:33:47.498Z,29.00
2022-07-25T06:36:19.530Z,29.50
2022-07-25T06:38:51.632Z,30.00
2022-07-25T06:41:23.686Z,30.50
2022-07-25T06:43:55.639Z,31.10
2022-07-25T06:46:31.486Z,31.70
2022-07-25T06:49:03.838Z,32.10
2022-07-25T06:51:36.009Z,32.60
2022-07-25T06:54:08.732Z,33.30
2022-07-25T06:56:46.370Z,33.70
2022-07-25T06:59:18.342Z,34.30
2022-07-25T07:01:51.819Z,35.00
2022-07-25T07:04:24.074Z,35.60
2022-07-25T07:06:56.080Z,36.20
2022-07-25T07:09:28.140Z,36.80
2022-07-25T07:12:00.354Z,37.10
2022-07-25T07:14:32.549Z,37.80
2022-07-25T07:17:05.760Z,38.10
2022-07-25T07:19:43.972Z,38.70
2022-07-25T07:22:16.678Z,39.10
2022-07-25T07:24:48.754Z,39.30
2022-07-25T07:27:23.530Z,39.50
2022-07-25T07:29:55.567Z,39.50
2022-07-25T07:32:28.464Z,39.80
2022-07-25T07:35:00.614Z,39.90
2022-07-25T07:37:37.644Z,39.90
2022-07-25T07:40:16.891Z,40.10
2022-07-25T07:42:50.981Z,40.00
2022-07-25T07:45:25.696Z,40.10
2022-07-25T07:47:58.223Z,40.30
2022-07-25T07:50:30.373Z,40.20
2022-07-25T07:53:02.932Z,40.10
2022-07-25T07:56:10.857Z,40.10
2022-07-25T07:58:43.894Z,40.20
2022-07-25T08:01:16.297Z,40.30
2022-07-25T08:03:48.886Z,40.20
2022-07-25T08:06:21.135Z,40.10
2022-07-25T08:08:53.313Z,39.70
2022-07-25T08:11:26.610Z,39.00
2022-07-25T08:13:58.772Z,39.10
2022-07-25T08:16:31.217Z,39.30
2022-07-25T08:19:04.090Z,39.30
2022-07-25T08:21:36.352Z,39.40
2022-07-25T08:24:08.889Z,39.50
2022-07-25T08:26:41.732Z,39.80
2022-07-25T08:29:25.012Z,39.90
2022-07-25T08:32:00.039Z,39.90
2022-07-25T08:34:32.419Z,39.80
2022-07-25T08:37:05.280Z,39.90
2022-07-25T08:39:37.310Z,39.60
2022-07-25T08:42:11.218Z,39.10
2022-07-25T08:44:49.222Z,38.90
2022-07-25T08:47:30.339Z,38.80
2022-07-25T08:50:08.662Z,38.50
2022-07-25T08:52:45.499Z,38.20
2022-07-25T08:55:22.759Z,38.00
2022-07-25T08:57:55.286Z,38.00
2022-07-25T09:00:36.267Z,37.80
2022-07-25T09:03:09.259Z,37.60
2022-07-25T09:05:41.914Z,37.40
2022-07-25T09:08:20.432Z,37.20
2022-07-25T09:10:53.521Z,37.00
2022-07-25T09:13:26.432Z,36.80
2022-07-25T09:16:00.588Z,36.60
2022-07-25T09:18:36.625Z,36.40
2022-07-25T09:21:13.894Z,36.30
2022-07-25T09:23:47.807Z,36.20
2022-07-25T09:26:19.971Z,36.20
2022-07-25T09:28:53.642Z,36.10
2022-07-25T09:31:33.148Z,35.90
2022-07-25T09:34:08.712Z,35.80
2022-07-25T09:36:54.690Z,35.70
2022-07-25T09:39:45.416Z,35.70
2022-07-25T09:42:27.597Z,35.60
2022-07-25T09:45:06.716Z,35.60
2022-07-25T09:47:55.581Z,35.60
2022-07-25T09:50:42.035Z,35.40
2022-07-25T09:53:14.865Z,35.30
2022-07-25T09:55:47.145Z,35.40
2022-07-25T09:58:19.612Z,35.40
2022-07-25T10:00:55.934Z,35.40
2022-07-25T10:03:50.967Z,35.40
2022-07-25T10:06:50.030Z,35.40
2022-07-25T10:09:28.893Z,35.50
2022-07-25T10:12:09.436Z,35.60
2022-07-25T10:14:43.034Z,35.50
2022-07-25T10:17:36.650Z,35.60
2022-07-25T10:20:10.872Z,35.50
2022-07-25T10:22:56.140Z,35.50
2022-07-25T10:25:29.447Z,35.50
2022-07-25T10:28:11.694Z,35.60
2022-07-25T10:30:58.644Z,35.60
2022-07-25T10:33:41.636Z,35.60
2022-07-25T10:36:14.097Z,35.70
2022-07-25T10:38:46.955Z,35.80
2022-07-25T10:41:26.007Z,35.80
2022-07-25T10:44:01.919Z,35.70
2022-07-25T10:46:35.773Z,35.60
2022-07-25T10:49:08.908Z,35.70
2022-07-25T10:51:59.092Z,35.70
2022-07-25T10:54:38.010Z,35.80
2022-07-25T10:57:16.724Z,35.90
2022-07-25T10:59:49.057Z,36.10
2022-07-25T11:02:23.991Z,36.20
2022-07-25T11:05:02.957Z,36.20
2022-07-25T11:07:38.107Z,36.30
2022-07-25T11:10:28.204Z,36.30
2022-07-25T11:13:00.480Z,36.40
2022-07-25T11:15:32.628Z,36.40
2022-07-25T11:18:04.916Z,36.40
2022-07-25T11:20:37.343Z,36.60
2022-07-25T11:23:09.556Z,36.70
2022-07-25T11:25:43.484Z,36.90
2022-07-25T11:28:15.623Z,37.00
2022-07-25T11:30:48.026Z,37.10
2022-07-25T11:33:20.218Z,37.10
2022-07-25T11:35:52.502Z,37.10
2022-07-25T11:38:25.739Z,37.20
2022-07-25T11:41:01.962Z,37.50
2022-07-25T11:43:34.775Z,37.60
2022-07-25T11:46:07.935Z,37.60
2022-07-25T11:48:41.221Z,37.60
2022-07-25T11:51:18.901Z,37.40
2022-07-25T11:53:51.616Z,37.40
2022-07-25T11:59:18.004Z,37.70
2022-07-25T12:01:50.409Z,37.80
2022-07-25T12:04:23.937Z,37.90
2022-07-25T12:07:05.809Z,37.80
2022-07-25T12:09:38.157Z,37.70
2022-07-25T12:12:10.407Z,37.50
2022-07-25T12:14:43.896Z,37.10
2022-07-25T12:17:16.538Z,36.70
2022-07-25T12:19:55.099Z,36.70
2022-07-25T12:22:27.338Z,36.70
2022-07-25T12:24:59.564Z,36.70
2022-07-25T12:27:32.070Z,36.60
2022-07-25T12:30:05.355Z,36.70
2022-07-25T12:32:38.998Z,36.80
2022-07-25T12:35:13.693Z,36.90
2022-07-25T12:37:46.107Z,37.00
2022-07-25T12:40:18.449Z,37.10
2022-07-25T12:42:51.699Z,37.10
2022-07-25T12:45:25.840Z,37.00
2022-07-25T12:47:58.828Z,36.70
2022-07-25T12:50:31.243Z,36.40
2022-07-25T12:53:04.927Z,36.10
2022-07-25T12:55:40.962Z,35.80
2022-07-25T12:58:15.154Z,35.70
2022-07-25T13:00:49.339Z,35.60
2022-07-25T13:03:21.871Z,35.80
2022-07-25T13:05:54.373Z,36.20
2022-07-25T13:08:27.604Z,36.50
2022-07-25T13:10:59.690Z,36.70
2022-07-25T13:13:31.718Z,36.70
2022-07-25T13:16:04.171Z,36.90
2022-07-25T13:18:37.129Z,37.10
2022-07-25T13:21:09.600Z,37.10
2022-07-25T13:23:42.326Z,37.10
2022-07-25T13:26:14.976Z,37.10
2022-07-25T13:28:47.229Z,36.80
2022-07-25T13:31:22.720Z,36.60
2022-07-25T13:34:09.144Z,36.50
2022-07-25T13:36:41.804Z,36.60
2022-07-25T13:39:14.149Z,36.50
2022-07-25T13:41:47.218Z,36.50
2022-07-25T13:44:20.603Z,36.40
2022-07-25T13:46:53.870Z,36.30
2022-07-25T13:49:26.470Z,36.20
2022-07-25T13:51:58.750Z,36.00
2022-07-25T13:54:31.262Z,35.80
2022-07-25T13:57:04.081Z,35.70
2022-07-25T13:59:36.642Z,35.60
2022-07-25T14:02:09.489Z,35.30
2022-07-25T14:04:42.046Z,35.20
2022-07-25T14:07:14.313Z,35.00
2022-07-25T14:09:47.612Z,34.80
2022-07-25T14:12:19.670Z,34.60
2022-07-25T14:14:52.043Z,34.50
2022-07-25T14:17:29.744Z,34.30
2022-07-25T14:20:04.764Z,34.30
2022-07-25T14:22:39.564Z,34.20
2022-07-25T14:25:13.885Z,34.10
2022-07-25T14:27:46.180Z,34.00
2022-07-25T14:30:18.864Z,34.10
2022-07-25T14:32:51.118Z,34.00
2022-07-25T14:35:23.174Z,34.00
2022-07-25T14:37:55.391Z,34.10
2022-07-25T14:40:28.821Z,34.20
2022-07-25T14:43:01.129Z,34.20
2022-07-25T14:45:34.458Z,34.20
2022-07-25T14:48:08.042Z,34.10
2022-07-25T14:50:40.619Z,34.10
2022-07-25T14:53:13.531Z,34.00
2022-07-25T14:55:46.273Z,33.90
2022-07-25T14:58:18.485Z,33.80
2022-07-25T15:00:50.857Z,33.80
2022-07-25T15:03:23.320Z,33.80
2022-07-25T15:05:56.164Z,33.80
2022-07-25T15:08:29.522Z,33.60
2022-07-25T15:11:01.825Z,33.50
2022-07-25T15:13:34.296Z,33.50
2022-07-25T15:16:06.787Z,33.40
2022-07-25T15:19:05.510Z,33.40
2022-07-25T15:21:31.954Z,33.30
2022-07-25T15:24:05.638Z,33.30
2022-07-25T15:26:38.046Z,33.10
2022-07-25T15:29:12.273Z,33.10
2022-07-25T15:31:51.788Z,33.00
2022-07-25T15:34:25.167Z,32.90
2022-07-25T15:36:57.692Z,33.00
2022-07-25T15:39:30.185Z,32.90
2022-07-25T15:42:03.590Z,32.90
2022-07-25T15:44:36.513Z,32.70
2022-07-25T15:47:09.395Z,32.50
2022-07-25T15:49:42.472Z,32.10
2022-07-25T15:52:14.802Z,31.90
2022-07-25T15:54:47.292Z,31.70
2022-07-25T15:57:19.632Z,31.40
2022-07-25T15:59:52.425Z,31.30
2022-07-25T16:02:25.619Z,31.20
2022-07-25T16:04:57.997Z,31.30
2022-07-25T16:07:31.618Z,31.50
2022-07-25T16:10:05.871Z,31.70
2022-07-25T16:12:39.287Z,31.80
2022-07-25T16:15:12.742Z,31.80
2022-07-25T16:17:46.116Z,31.80
2022-07-25T16:20:20.741Z,31.80
2022-07-25T16:22:56.175Z,31.70
2022-07-25T16:25:31.289Z,31.60
2022-07-25T16:28:04.625Z,31.60
2022-07-25T16:30:37.841Z,31.60
2022-07-25T16:33:10.399Z,31.60
2022-07-25T16:35:43.324Z,31.60
2022-07-25T16:38:15.845Z,31.60
2022-07-25T16:40:51.282Z,31.60
2022-07-25T16:43:24.359Z,31.70
2022-07-25T16:45:56.613Z,31.70
2022-07-25T16:48:29.453Z,31.90
2022-07-25T16:51:02.548Z,32.00
2022-07-25T16:53:36.702Z,32.20
2022-07-25T16:56:09.465Z,32.20
2022-07-25T16:58:42.236Z,32.30
2022-07-25T17:01:15.507Z,32.30
2022-07-25T17:03:48.116Z,32.30
2022-07-25T17:06:20.787Z,32.40
2022-07-25T17:08:54.320Z,32.40
2022-07-25T17:11:27.575Z,32.40
2022-07-25T17:14:03.353Z,32.40
2022-07-25T17:16:36.471Z,32.40
2022-07-25T17:19:11.022Z,32.30
2022-07-25T17:21:43.613Z,32.20
2022-07-25T17:24:16.571Z,32.10
2022-07-25T17:26:49.597Z,32.00
2022-07-25T17:29:22.159Z,31.80
2022-07-25T17:31:57.637Z,31.70
2022-07-25T17:34:30.224Z,31.60
2022-07-25T17:37:03.113Z,31.40
2022-07-25T17:39:37.754Z,31.20
2022-07-25T17:42:10.341Z,31.10
2022-07-25T17:44:42.760Z,31.00
2022-07-25T17:47:15.162Z,30.90
2022-07-25T17:49:47.615Z,30.80
2022-07-25T17:52:20.615Z,30.70
2022-07-25T17:54:53.456Z,30.60
2022-07-25T17:57:27.148Z,30.50
2022-07-25T17:59:59.444Z,30.40
2022-07-25T18:02:31.821Z,30.30
2022-07-25T18:05:05.950Z,30.20
2022-07-25T18:07:45.769Z,30.10
2022-07-25T18:10:23.923Z,30.00
2022-07-25T18:12:56.352Z,29.90
2022-07-25T18:15:31.404Z,29.80
2022-07-25T18:18:03.817Z,29.70
2022-07-25T18:20:39.964Z,29.50
2022-07-25T18:23:12.514Z,29.40
2022-07-25T18:25:45.628Z,29.30
2022-07-25T18:28:18.041Z,29.20
2022-07-25T18:30:51.552Z,29.00
2022-07-25T18:33:23.907Z,28.90
2022-07-25T18:35:56.599Z,28.80
2022-07-25T18:38:28.717Z,28.70
2022-07-25T18:41:27.450Z,28.60
2022-07-25T18:43:54.423Z,28.50
2022-07-25T18:46:27.284Z,28.30
2022-07-25T18:49:01.770Z,28.20
2022-07-25T18:51:34.065Z,28.10
2022-07-25T18:54:06.539Z,28.00
2022-07-25T18:56:39.247Z,27.90
2022-07-25T18:59:11.513Z,27.80
2022-07-25T19:01:44.257Z,27.70
2022-07-25T19:04:17.524Z,27.60
2022-07-25T19:06:50.172Z,27.50
2022-07-25T19:09:22.634Z,27.50
2022-07-25T19:11:57.373Z,27.40
2022-07-25T19:14:30.917Z,27.30
2022-07-25T19:17:04.097Z,27.20
2022-07-25T19:19:37.296Z,27.20
2022-07-25T19:22:10.298Z,27.10
2022-07-25T19:24:43.543Z,27.00
2022-07-25T19:27:15.767Z,27.00
2022-07-25T19:29:49.300Z,27.00
2022-07-25T19:32:27.633Z,26.90
2022-07-25T19:34:59.965Z,26.90
2022-07-25T19:37:34.957Z,26.80
2022-07-25T19:40:07.855Z,26.80
2022-07-25T19:42:42.798Z,26.70
2022-07-25T19:45:14.978Z,26.70
2022-07-25T19:47:47.171Z,26.60
2022-07-25T19:50:19.965Z,26.60
2022-07-25T19:52:52.230Z,26.50
2022-07-25T19:55:24.342Z,26.40
2022-07-25T19:57:57.139Z,26.40
2022-07-25T20:00:30.243Z,26.40
2022-07-25T20:03:02.955Z,26.30
2022-07-25T20:05:36.713Z,26.20
2022-07-25T20:08:09.300Z,26.20
2022-07-25T20:10:42.195Z,26.10
2022-07-25T20:13:14.788Z,26.00
2022-07-25T20:15:47.321Z,25.90
2022-07-25T20:18:20.036Z,25.90
2022-07-25T20:20:52.323Z,25.90
2022-07-25T20:23:24.908Z,25.80
2022-07-25T20:25:57.585Z,25.80
2022-07-25T20:28:31.621Z,25.70
2022-07-25T20:31:05.241Z,25.70
2022-07-25T20:33:37.843Z,25.60
2022-07-25T20:36:10.455Z,25.60
2022-07-25T20:38:42.667Z,25.60
2022-07-25T20:41:16.409Z,25.50
2022-07-25T20:43:49.678Z,25.40
2022-07-25T20:46:22.354Z,25.40
2022-07-25T20:48:54.975Z,25.30
2022-07-25T20:51:27.543Z,25.20
2022-07-25T20:53:59.774Z,25.20
2022-07-25T20:56:34.309Z,25.10
2022-07-25T20:59:07.221Z,25.10
2022-07-25T21:01:40.708Z,25.00
2022-07-25T21:04:13.375Z,25.00
2022-07-25T21:06:47.845Z,25.00
2022-07-25T21:09:20.337Z,24.90
2022-07-25T21:11:52.537Z,24.80
2022-07-25T21:14:26.825Z,24.80
2022-07-25T21:16:59.296Z,24.80
2022-07-25T21:19:31.828Z,24.70
2022-07-25T21:22:04.568Z,24.70
2022-07-25T21:24:36.808Z,24.60
2022-07-25T21:27:09.897Z,24.60
2022-07-25T21:29:41.937Z,24.50
2022-07-25T21:32:14.341Z,24.50
2022-07-25T21:34:49.870Z,24.50
2022-07-25T21:37:22.717Z,24.40
2022-07-25T21:39:54.863Z,24.30
2022-07-25T21:42:28.028Z,24.30
2022-07-25T21:45:00.385Z,24.30
2022-07-25T21:47:32.684Z,24.30
2022-07-25T21:50:25.070Z,24.20
2022-07-25T21:53:14.757Z,24.20
2022-07-25T21:55:46.975Z,24.20
2022-07-25T21:58:21.538Z,24.10
2022-07-25T22:00:55.150Z,24.00
2022-07-25T22:03:27.248Z,24.00
2022-07-25T22:05:59.368Z,23.90
2022-07-25T22:08:31.594Z,23.90
2022-07-25T22:11:15.900Z,23.80
2022-07-25T22:13:54.134Z,23.70
2022-07-25T22:16:26.396Z,23.70
2022-07-25T22:18:59.727Z,23.60
2022-07-25T22:21:32.892Z,23.60
2022-07-25T22:24:05.153Z,23.50
2022-07-25T22:26:38.002Z,23.50
2022-07-25T22:29:10.708Z,23.50
2022-07-25T22:31:44.440Z,23.40
2022-07-25T22:34:16.836Z,23.40
2022-07-25T22:36:49.018Z,23.30
2022-07-25T22:39:21.581Z,23.30
2022-07-25T22:41:53.747Z,23.20
2022-07-25T22:44:25.794Z,23.10
2022-07-25T22:46:58.637Z,23.10
2022-07-25T22:49:30.635Z,23.10
2022-07-25T22:52:02.644Z,23.00
2022-07-25T22:54:35.767Z,23.00
2022-07-25T22:57:07.827Z,23.00
2022-07-25T22:59:39.990Z,22.90
2022-07-25T23:02:12.110Z,22.90
2022-07-25T23:04:44.170Z,22.80
2022-07-25T23:07:16.165Z,22.80
2022-07-25T23:09:48.202Z,22.80
2022-07-25T23:12:27.589Z,22.80
2022-07-25T23:14:59.646Z,22.70
2022-07-25T23:17:31.827Z,22.70
2022-07-25T23:20:04.450Z,22.70
2022-07-25T23:22:37.277Z,22.70
2022-07-25T23:25:10.661Z,22.60
2022-07-25T23:27:42.839Z,22.60
2022-07-25T23:30:16.462Z,22.60
2022-07-25T23:32:48.623Z,22.50
2022-07-25T23:35:20.633Z,22.40
2022-07-25T23:37:52.607Z,22.40
2022-07-25T23:40:24.723Z,22.40
2022-07-25T23:42:57.254Z,22.30
2022-07-25T23:45:29.282Z,22.30
2022-07-25T23:48:01.385Z,22.20
2022-07-25T23:50:34.954Z,22.20
2022-07-25T23:53:07.148Z,22.20
2022-07-25T23:55:40.384Z,22.10
2022-07-25T23:58:12.309Z,22.10
